e-Mail: Password: Lost your password? Click here. - Register a new user

c h a v e z j u a r e z . c o m

Weather - Tiempo - Wetter - Temps

METAR DATA MMMX (Mexico City)

Mexico City / Licenci, Mexico (MMMX) 19-26N 099-06W
Apr 25, 2018 - 03:40 AM EDT / 2018.04.25 0740 UTC
Wind: from the SW (230 degrees) at 3 MPH (3 KT):0
Visibility: 8 mile(s):0
Sky conditions: partly cloudy
Temperature: 59 F (15 C)
Dew Point: 50 F (10 C)
Relative Humidity: 72%
Pressure (altimeter): 30.37 in. Hg (1028 hPa)
ob: MMMX 250740Z 23003KT 8SM FEW020 SCT080 15/10 A3037 NOSIG RMK 8/460 HZY CI
cycle: 7

Mexico City

St. Prex




Current weather alarms for Switzerland


www.wetteralarm.ch